createdAt,value
2023-02-09T00:00:13.058Z,24.70
2023-02-09T00:05:20.011Z,20.57
2023-02-09T00:10:24.021Z,23.40
2023-02-09T00:15:26.128Z,24.47
2023-02-09T00:20:27.814Z,23.90
2023-02-09T00:25:29.495Z,23.63
2023-02-09T00:30:31.222Z,23.53
2023-02-09T00:35:35.197Z,24.57
2023-02-09T00:40:39.924Z,23.43
2023-02-09T00:45:43.684Z,20.60
2023-02-09T00:50:47.736Z,22.13
2023-02-09T00:55:52.684Z,22.57
2023-02-09T01:00:54.433Z,21.67
2023-02-09T01:05:58.836Z,20.83
2023-02-09T01:11:02.772Z,19.00
2023-02-09T01:16:13.629Z,19.97
2023-02-09T01:21:18.987Z,18.13
2023-02-09T01:26:23.050Z,20.10
2023-02-09T01:31:30.314Z,19.10
2023-02-09T01:36:35.725Z,20.27
2023-02-09T01:41:40.052Z,17.67
2023-02-09T01:46:44.828Z,17.70
2023-02-09T01:52:04.994Z,18.87
2023-02-09T01:57:10.783Z,15.87
2023-02-09T02:02:12.848Z,17.07
2023-02-09T02:07:45.698Z,13.40
2023-02-09T02:12:47.494Z,17.77
2023-02-09T02:18:04.110Z,14.03
2023-02-09T02:23:38.225Z,11.37
2023-02-09T02:29:05.375Z,13.13
2023-02-09T02:34:15.371Z,14.63
2023-02-09T02:39:24.870Z,14.23
2023-02-09T02:44:30.564Z,12.13
2023-02-09T02:50:00.216Z,12.50
2023-02-09T02:55:08.512Z,13.63
2023-02-09T03:00:21.125Z,10.73
2023-02-09T03:05:29.085Z,10.93
2023-02-09T03:10:34.785Z,14.60
2023-02-09T03:16:03.708Z,11.97
2023-02-09T03:21:14.441Z,11.03
2023-02-09T03:26:21.609Z,10.20
2023-02-09T03:31:24.131Z,13.87
2023-02-09T03:36:25.939Z,11.80
2023-02-09T03:41:28.623Z,7.97
2023-02-09T03:46:30.355Z,12.67
2023-02-09T03:51:34.407Z,12.17
2023-02-09T03:56:41.939Z,12.97
2023-02-09T04:01:46.057Z,12.60
2023-02-09T04:06:48.299Z,11.37
2023-02-09T04:11:51.334Z,14.63
2023-02-09T04:16:55.298Z,10.07
2023-02-09T04:22:01.035Z,13.90
2023-02-09T04:27:05.447Z,13.40
2023-02-09T04:32:07.181Z,11.33
2023-02-09T04:37:11.356Z,10.63
2023-02-09T04:42:15.207Z,10.27
2023-02-09T04:47:16.844Z,12.17
2023-02-09T04:52:22.374Z,11.07
2023-02-09T04:57:47.176Z,10.60
2023-02-09T05:02:51.760Z,16.07
2023-02-09T05:07:53.433Z,12.37
2023-02-09T05:12:55.225Z,12.50
2023-02-09T05:17:59.280Z,15.63
2023-02-09T05:23:03.219Z,13.60
2023-02-09T05:28:07.671Z,14.23
2023-02-09T05:33:11.847Z,13.63
2023-02-09T05:38:13.749Z,14.80
2023-02-09T05:43:18.428Z,10.63
2023-02-09T05:48:22.333Z,11.27
2023-02-09T05:53:26.276Z,20.03
2023-02-09T05:58:27.930Z,14.77
2023-02-09T06:03:29.752Z,13.20
2023-02-09T06:08:38.312Z,13.10
2023-02-09T06:13:40.017Z,10.03
2023-02-09T06:18:41.700Z,14.37
2023-02-09T06:23:48.330Z,12.77
2023-02-09T06:28:53.442Z,11.33
2023-02-09T06:33:57.256Z,7.40
2023-02-09T06:39:10.075Z,10.17
2023-02-09T06:44:13.064Z,14.07
2023-02-09T06:49:18.836Z,14.60
2023-02-09T06:54:23.250Z,14.60
2023-02-09T06:59:25.659Z,9.33
2023-02-09T07:04:27.389Z,14.90
2023-02-09T07:09:32.336Z,18.60
2023-02-09T07:14:37.065Z,13.77
2023-02-09T07:19:41.167Z,14.00
2023-02-09T07:24:44.921Z,11.70
2023-02-09T07:29:46.626Z,11.93
2023-02-09T07:34:48.527Z,14.73
2023-02-09T07:39:52.559Z,15.70
2023-02-09T07:44:56.630Z,16.17
2023-02-09T07:50:00.857Z,12.97
2023-02-09T07:55:05.242Z,11.60
2023-02-09T08:00:07.491Z,12.90
2023-02-09T08:05:27.145Z,17.87
2023-02-09T08:10:31.152Z,13.27
2023-02-09T08:15:49.666Z,14.33
2023-02-09T08:20:52.234Z,18.97
2023-02-09T08:25:57.026Z,13.07
2023-02-09T08:31:03.668Z,13.87
2023-02-09T08:36:05.920Z,12.20
2023-02-09T08:41:09.260Z,15.23
2023-02-09T08:46:16.024Z,12.20
2023-02-09T08:51:18.422Z,16.50
2023-02-09T08:56:25.335Z,8.90
2023-02-09T09:01:30.859Z,11.63
2023-02-09T09:06:33.077Z,15.43
2023-02-09T09:11:34.930Z,14.87
2023-02-09T09:16:41.908Z,16.93
2023-02-09T09:21:48.144Z,14.47
2023-02-09T09:26:50.124Z,10.87
2023-02-09T09:31:54.305Z,16.53
2023-02-09T09:37:03.451Z,13.87
2023-02-09T09:42:13.570Z,13.53
2023-02-09T09:47:23.368Z,14.50
2023-02-09T09:52:35.145Z,14.00
2023-02-09T09:57:46.067Z,17.87
2023-02-09T10:02:50.582Z,16.53
2023-02-09T10:08:14.816Z,12.53
2023-02-09T10:13:25.872Z,18.30
2023-02-09T10:18:38.143Z,15.30
2023-02-09T10:23:45.787Z,15.20
2023-02-09T10:28:55.871Z,10.87
2023-02-09T10:34:11.924Z,12.63
2023-02-09T10:39:25.523Z,18.00
2023-02-09T10:44:35.652Z,14.70
2023-02-09T10:49:43.196Z,9.00
2023-02-09T10:54:54.041Z,16.97
2023-02-09T11:00:01.106Z,13.50
2023-02-09T11:05:23.358Z,15.07
2023-02-09T11:10:27.377Z,15.83
2023-02-09T11:15:38.734Z,14.93
2023-02-09T11:20:59.873Z,13.33
2023-02-09T11:26:10.216Z,17.10
2023-02-09T11:31:31.807Z,12.27
2023-02-09T11:36:58.248Z,19.10
2023-02-09T11:42:22.289Z,17.47
2023-02-09T11:47:52.229Z,15.73
2023-02-09T11:53:00.650Z,16.13
2023-02-09T11:58:40.733Z,16.13
2023-02-09T12:03:56.101Z,19.33
2023-02-09T12:09:05.526Z,16.07
2023-02-09T12:14:28.632Z,20.07
2023-02-09T12:19:35.863Z,14.27
2023-02-09T12:24:39.890Z,16.83
2023-02-09T12:29:41.756Z,18.17
2023-02-09T12:34:49.687Z,17.17
2023-02-09T12:40:18.406Z,15.13
2023-02-09T12:45:39.620Z,18.83
2023-02-09T12:50:47.362Z,20.10
2023-02-09T12:56:04.707Z,22.37
2023-02-09T13:01:08.932Z,19.93
2023-02-09T13:06:27.361Z,21.90
2023-02-09T13:11:49.908Z,18.03
2023-02-09T13:17:09.728Z,21.23
2023-02-09T13:22:32.833Z,19.57
2023-02-09T13:27:47.106Z,24.70
2023-02-09T13:33:12.425Z,20.93
2023-02-09T13:38:16.825Z,21.67
2023-02-09T13:43:27.370Z,20.90
2023-02-09T13:48:37.529Z,20.13
2023-02-09T13:53:39.506Z,21.17
2023-02-09T13:58:41.341Z,22.10
2023-02-09T14:03:57.455Z,24.47
2023-02-09T14:09:00.652Z,21.50
2023-02-09T14:14:10.085Z,22.97
2023-02-09T14:19:31.904Z,20.50
2023-02-09T14:24:45.488Z,21.33
2023-02-09T14:29:48.397Z,19.57
2023-02-09T14:34:52.499Z,22.73
2023-02-09T14:40:02.136Z,29.47
2023-02-09T14:45:12.988Z,23.80
2023-02-09T14:50:17.245Z,22.77
2023-02-09T14:55:33.572Z,28.53
2023-02-09T15:00:37.843Z,25.93
2023-02-09T15:05:42.350Z,26.10
2023-02-09T15:10:47.200Z,28.87
2023-02-09T15:15:51.215Z,27.67
2023-02-09T15:20:53.886Z,24.83
2023-02-09T15:25:58.394Z,30.00
2023-02-09T15:31:00.388Z,25.52
2023-02-09T15:36:02.419Z,28.13
2023-02-09T15:41:27.924Z,26.93
2023-02-09T15:46:48.290Z,31.10
2023-02-09T15:51:59.109Z,31.70
2023-02-09T15:57:01.194Z,35.03
2023-02-09T16:02:03.456Z,31.53
2023-02-09T16:07:15.285Z,37.35
2023-02-09T16:12:17.109Z,17.23
2023-02-09T16:17:21.051Z,38.40
2023-02-09T16:22:25.121Z,36.57
2023-02-09T16:27:28.502Z,34.30
2023-02-09T16:32:32.506Z,32.17
2023-02-09T16:37:36.686Z,39.37
2023-02-09T16:42:48.507Z,32.43
2023-02-09T16:47:57.173Z,32.33
2023-02-09T16:53:03.601Z,38.72
2023-02-09T16:58:05.860Z,38.30
2023-02-09T17:03:15.448Z,34.07
2023-02-09T17:08:24.929Z,31.87
2023-02-09T17:13:27.063Z,38.63
2023-02-09T17:18:33.501Z,40.83
2023-02-09T17:23:38.506Z,34.77
2023-02-09T17:28:41.367Z,30.03
2023-02-09T17:33:46.788Z,32.77
2023-02-09T17:38:48.584Z,36.43
2023-02-09T17:43:52.895Z,37.37
2023-02-09T17:48:54.606Z,38.00
2023-02-09T17:54:01.084Z,44.80
2023-02-09T17:59:08.267Z,39.67
2023-02-09T18:04:20.870Z,45.07
2023-02-09T18:09:27.516Z,48.03
2023-02-09T18:14:34.352Z,40.00
2023-02-09T18:19:36.105Z,48.90
2023-02-09T18:24:39.860Z,39.27
2023-02-09T18:29:44.028Z,62.10
2023-02-09T18:34:48.609Z,64.90
2023-02-09T18:39:52.356Z,43.40
2023-02-09T18:44:56.327Z,47.07
2023-02-09T18:50:01.560Z,47.50
2023-02-09T18:55:10.469Z,53.37
2023-02-09T19:00:15.120Z,59.70
2023-02-09T19:05:20.824Z,56.70
2023-02-09T19:10:33.370Z,66.50
2023-02-09T19:15:36.305Z,71.63
2023-02-09T19:20:39.247Z,68.53
2023-02-09T19:25:41.183Z,74.00
2023-02-09T19:30:43.015Z,67.63
2023-02-09T19:35:58.283Z,71.93
2023-02-09T19:41:10.672Z,77.07
2023-02-09T19:46:15.053Z,64.70
2023-02-09T19:51:17.893Z,69.23
2023-02-09T19:56:32.142Z,70.53
2023-02-09T20:01:34.532Z,71.63
2023-02-09T20:06:38.530Z,77.23
2023-02-09T20:11:41.543Z,70.17
2023-02-09T20:16:43.314Z,72.57
2023-02-09T20:21:47.562Z,78.00
2023-02-09T20:26:49.245Z,79.13
2023-02-09T20:31:56.098Z,85.23
2023-02-09T20:36:57.841Z,72.40
2023-02-09T20:42:18.219Z,96.73
2023-02-09T20:47:22.035Z,82.37
2023-02-09T20:52:23.744Z,105.07
2023-02-09T20:57:29.665Z,97.70
2023-02-09T21:02:36.547Z,79.17
2023-02-09T21:07:40.530Z,91.00
2023-02-09T21:12:46.568Z,95.10
2023-02-09T21:17:51.729Z,92.63
2023-02-09T21:22:53.479Z,90.50
2023-02-09T21:27:59.765Z,71.03
2023-02-09T21:33:03.767Z,103.83
2023-02-09T21:38:11.666Z,87.17
2023-02-09T21:43:15.663Z,100.23
2023-02-09T21:48:17.371Z,89.97
2023-02-09T21:53:23.765Z,97.57
2023-02-09T21:58:25.609Z,77.40
2023-02-09T22:03:29.510Z,90.50
2023-02-09T22:08:31.336Z,86.20
2023-02-09T22:13:33.434Z,89.80
2023-02-09T22:18:36.286Z,79.80
2023-02-09T22:23:40.276Z,88.40
2023-02-09T22:28:42.697Z,78.47
2023-02-09T22:33:45.008Z,84.10
2023-02-09T22:38:46.773Z,86.10
2023-02-09T22:43:56.325Z,84.07
2023-02-09T22:49:01.869Z,92.27
2023-02-09T22:54:06.663Z,76.97
2023-02-09T22:59:08.777Z,74.17
2023-02-09T23:04:15.168Z,80.47
2023-02-09T23:09:17.798Z,70.70
2023-02-09T23:14:19.649Z,89.17
2023-02-09T23:19:21.714Z,76.73
2023-02-09T23:24:28.710Z,67.47
2023-02-09T23:29:33.057Z,66.13
2023-02-09T23:34:37.815Z,61.30
2023-02-09T23:39:41.593Z,57.47
2023-02-09T23:44:47.857Z,67.60
2023-02-09T23:49:59.360Z,63.40
2023-02-09T23:55:04.938Z,60.10
